TimeEST,TemperatureF,Dew PointF,Humidity,Sea Level PressureIn,VisibilityMPH,Wind Direction,Wind SpeedMPH,Gust SpeedMPH,PrecipitationIn,Events,Conditions,WindDirDegrees,DateUTC
12:15 AM,11.8,-3.8,50,30.00,10.0,West,9.2,-,N/A,,Clear,270,2014-01-25 05:15:00
12:35 AM,12.0,-4.2,48,29.99,10.0,West,10.4,-,N/A,,Clear,270,2014-01-25 05:35:00
12:55 AM,11.8,-4.5,48,29.98,10.0,West,10.4,-,N/A,,Clear,270,2014-01-25 05:55:00
1:15 AM,11.7,-4.2,49,29.98,10.0,West,10.4,-,N/A,,Clear,270,2014-01-25 06:15:00
1:35 AM,10.8,-3.3,53,29.97,10.0,WSW,5.8,-,N/A,,Clear,240,2014-01-25 06:35:00
1:55 AM,11.7,-3.8,50,29.96,10.0,West,9.2,-,N/A,,Clear,260,2014-01-25 06:55:00
2:15 AM,12.4,-3.8,48,29.95,10.0,West,11.5,-,N/A,,Clear,270,2014-01-25 07:15:00
2:35 AM,13.1,-2.9,49,29.93,10.0,West,11.5,-,N/A,,Clear,260,2014-01-25 07:35:00
2:55 AM,13.5,-2.4,49,29.91,10.0,West,8.1,-,N/A,,Clear,270,2014-01-25 07:55:00
3:15 AM,13.1,-1.5,52,29.89,10.0,West,8.1,-,N/A,,Clear,270,2014-01-25 08:15:00
3:35 AM,13.3,-1.1,53,29.87,10.0,West,12.7,-,N/A,,Clear,270,2014-01-25 08:35:00
3:55 AM,13.8,-0.4,53,29.86,10.0,WSW,12.7,-,N/A,,Clear,250,2014-01-25 08:55:00
4:15 AM,14.0,-0.0,54,29.85,10.0,WSW,12.7,-,N/A,,Clear,250,2014-01-25 09:15:00
4:35 AM,14.5,1.2,56,29.85,10.0,West,11.5,-,N/A,,Clear,260,2014-01-25 09:35:00
4:55 AM,14.4,1.2,56,29.83,10.0,West,12.7,-,N/A,,Scattered Clouds,260,2014-01-25 09:55:00
5:15 AM,15.8,1.6,54,29.81,10.0,WSW,11.5,-,N/A,,Scattered Clouds,250,2014-01-25 10:15:00
5:35 AM,17.1,1.6,51,29.80,10.0,WSW,15.0,20.7,N/A,,Mostly Cloudy,240,2014-01-25 10:35:00
5:55 AM,17.6,1.8,50,29.79,10.0,WSW,12.7,20.7,N/A,,Overcast,240,2014-01-25 10:55:00
6:15 AM,18.1,0.9,47,29.78,10.0,SW,9.2,16.1,N/A,,Overcast,230,2014-01-25 11:15:00
6:35 AM,18.5,0.5,45,29.76,10.0,WSW,10.4,19.6,N/A,,Overcast,240,2014-01-25 11:35:00
6:55 AM,19.0,0.1,44,29.75,10.0,WSW,13.8,20.7,N/A,,Overcast,240,2014-01-25 11:55:00
7:15 AM,19.8,0.3,43,29.74,10.0,WSW,11.5,19.6,N/A,,Overcast,250,2014-01-25 12:15:00
7:35 AM,20.5,-0.8,40,29.72,10.0,WSW,20.7,28.8,N/A,,Overcast,250,2014-01-25 12:35:00
7:55 AM,21.2,-0.6,39,29.70,10.0,WSW,23.0,29.9,N/A,,Overcast,250,2014-01-25 12:55:00
8:15 AM,22.1,-0.8,37,29.69,10.0,WSW,24.2,34.5,N/A,,Overcast,250,2014-01-25 13:15:00
8:35 AM,22.6,2.7,42,29.68,10.0,WSW,24.2,31.1,N/A,,Overcast,250,2014-01-25 13:35:00
8:55 AM,23.0,2.1,41,29.67,10.0,West,21.9,31.1,N/A,,Overcast,260,2014-01-25 13:55:00
9:15 AM,23.9,-0.2,35,29.66,10.0,West,26.5,32.2,N/A,,Overcast,260,2014-01-25 14:15:00
9:35 AM,24.6,1.6,37,29.66,10.0,West,26.5,34.5,N/A,Snow,Light Snow,270,2014-01-25 14:35:00
9:55 AM,24.8,3.6,40,29.64,5.0,West,26.5,36.8,N/A,,Haze,260,2014-01-25 14:55:00
10:15 AM,24.3,6.3,46,29.64,7.0,West,32.2,44.9,N/A,Snow,Light Snow,260,2014-01-25 15:15:00
10:35 AM,23.0,12.0,63,29.64,2.0,West,27.6,43.7,N/A,Snow,Light Snow,260,2014-01-25 15:35:00
10:55 AM,22.5,15.6,75,29.65,1.0,West,23.0,38.0,N/A,Snow,Light Snow,260,2014-01-25 15:55:00
11:15 AM,21.9,17.4,83,29.64,0.2,West,25.3,34.5,N/A,Snow,Snow,270,2014-01-25 16:15:00
11:35 AM,21.7,18.0,85,29.63,0.2,West,24.2,34.5,N/A,Snow,Snow,260,2014-01-25 16:35:00
11:55 AM,21.6,18.1,87,29.62,0.2,West,26.5,32.2,N/A,Snow,Snow,260,2014-01-25 16:55:00
12:15 PM,21.6,18.1,87,29.62,0.2,West,25.3,33.4,N/A,Snow,Snow,260,2014-01-25 17:15:00
12:35 PM,22.1,18.5,86,29.61,0.2,West,24.2,34.5,N/A,Snow,Light Snow,260,2014-01-25 17:35:00
12:55 PM,22.8,19.2,86,29.59,0.2,West,21.9,38.0,N/A,Snow,Snow,260,2014-01-25 17:55:00
1:15 PM,23.9,20.1,85,29.58,0.2,West,25.3,33.4,N/A,Snow,Light Snow,260,2014-01-25 18:15:00
1:35 PM,24.4,20.3,84,29.57,1.0,West,28.8,34.5,N/A,Snow,Light Snow,260,2014-01-25 18:35:00
1:55 PM,24.6,20.5,84,29.57,1.0,WSW,29.9,36.8,N/A,Snow,Light Snow,250,2014-01-25 18:55:00
2:15 PM,24.3,20.3,85,29.58,1.0,WSW,27.6,36.8,N/A,Snow,Light Snow,250,2014-01-25 19:15:00
2:35 PM,24.3,20.1,84,29.58,1.0,WSW,23.0,38.0,N/A,Snow,Light Snow,250,2014-01-25 19:35:00
2:55 PM,24.3,20.3,85,29.58,1.0,West,27.6,34.5,N/A,Snow,Light Snow,260,2014-01-25 19:55:00
3:15 PM,24.4,20.8,86,29.58,1.0,WSW,24.2,32.2,N/A,Snow,Light Snow,250,2014-01-25 20:15:00
3:35 PM,24.3,20.8,87,29.58,1.2,WSW,24.2,35.7,N/A,Snow,Light Snow,250,2014-01-25 20:35:00
3:55 PM,24.3,20.8,87,29.60,1.5,West,21.9,35.7,N/A,Snow,Light Snow,260,2014-01-25 20:55:00
4:15 PM,24.3,20.8,87,29.59,1.0,WSW,26.5,34.5,N/A,Snow,Light Snow,250,2014-01-25 21:15:00
4:35 PM,24.3,21.2,88,29.59,1.0,WSW,23.0,29.9,N/A,Snow,Light Snow,250,2014-01-25 21:35:00
4:55 PM,23.9,21.6,91,29.61,0.5,WSW,21.9,31.1,N/A,Snow,Light Snow,250,2014-01-25 21:55:00
5:15 PM,23.9,21.4,90,29.62,0.5,WSW,20.7,31.1,N/A,Snow,Light Snow,250,2014-01-25 22:15:00
5:35 PM,23.9,21.2,89,29.62,1.2,WSW,18.4,27.6,N/A,Snow,Light Snow,240,2014-01-25 22:35:00
5:55 PM,24.1,21.0,88,29.62,4.0,WSW,17.3,27.6,N/A,Snow,Light Snow,240,2014-01-25 22:55:00
6:15 PM,23.9,20.3,86,29.63,5.0,WSW,15.0,28.8,N/A,Snow,Light Snow,250,2014-01-25 23:15:00
6:35 PM,24.8,20.3,83,29.64,7.0,WSW,19.6,29.9,N/A,Snow,Light Snow,250,2014-01-25 23:35:00
6:55 PM,24.8,21.2,86,29.64,1.5,WSW,15.0,25.3,N/A,Snow,Light Snow,250,2014-01-25 23:55:00
7:15 PM,25.3,20.1,81,29.63,7.0,West,23.0,29.9,N/A,Snow,Light Snow,260,2014-01-26 00:15:00
7:35 PM,24.8,21.6,87,29.63,0.5,West,24.2,29.9,N/A,Snow,Light Snow,260,2014-01-26 00:35:00
7:55 PM,25.5,20.7,82,29.65,5.0,West,23.0,32.2,N/A,Snow,Light Snow,260,2014-01-26 00:55:00
8:15 PM,25.5,21.9,86,29.66,1.5,West,25.3,38.0,N/A,Snow,Light Snow,260,2014-01-26 01:15:00
8:35 PM,25.3,23.2,91,29.66,1.0,West,26.5,34.5,N/A,Snow,Light Snow,260,2014-01-26 01:35:00
8:55 PM,25.3,23.2,91,29.65,0.8,West,28.8,36.8,N/A,Snow,Snow,270,2014-01-26 01:55:00
9:15 PM,25.7,23.4,91,29.67,1.0,West,25.3,39.1,N/A,Snow,Light Snow,260,2014-01-26 02:15:00
10:15 PM,26.1,22.6,87,29.72,10.0,West,19.6,25.3,N/A,,Overcast,260,2014-01-26 03:15:00
10:35 PM,26.6,22.6,85,29.73,7.0,West,19.6,27.6,N/A,Snow,Light Snow,260,2014-01-26 03:35:00
10:55 PM,26.8,20.7,78,29.74,10.0,West,17.3,-,N/A,Snow,Light Snow,270,2014-01-26 03:55:00
11:15 PM,27.5,18.3,68,29.75,10.0,West,15.0,31.1,N/A,,Mostly Cloudy,280,2014-01-26 04:15:00
11:35 PM,26.8,13.5,57,29.75,10.0,West,20.7,29.9,N/A,,Scattered Clouds,280,2014-01-26 04:35:00
11:55 PM,26.4,12.2,55,29.76,10.0,West,20.7,29.9,N/A,,Clear,270,2014-01-26 04:55:00